Time;durP1;ratioP1;P1;durP2;ratioP2;P2;SDS_P1;SDS_P2;PMS_P1;PMS_P2;Temp;Humidity;BMP_temperature;BMP_pressure;BME280_temperature;BME280_humidity;BME280_pressure;Samples;Min_cycle;Max_cycle;Signal;HPM_P1;HPM_P2
2021/04/20 04:42:18;;;;;;;30.57;18.62;;;;;;;7.26;84.13;99434.16;1720182;82;21187;-42
2021/04/20 04:44:47;;;;;;;24.10;16.35;;;;;;;7.28;84.12;99425.05;1719302;81;21141;-37
2021/04/20 04:47:15;;;;;;;24.18;17.70;;;;;;;7.32;84.10;99418.98;1720167;81;21171;-37
2021/04/20 04:49:46;;;;;;;22.73;16.65;;;;;;;7.36;84.14;99420.69;1725960;81;21675;-37
2021/04/20 04:52:15;;;;;;;20.70;15.18;;;;;;;7.40;84.01;99416.78;1725019;81;21183;-42
2021/04/20 04:54:43;;;;;;;21.42;15.23;;;;;;;7.48;83.83;99420.70;1705659;82;21896;-37
2021/04/20 04:57:12;;;;;;;25.85;17.90;;;;;;;7.53;83.66;99417.62;1718262;81;21767;-36
2021/04/20 04:59:41;;;;;;;25.72;17.77;;;;;;;7.62;83.49;99424.57;1734879;82;21187;-42
2021/04/20 05:02:11;;;;;;;23.83;17.10;;;;;;;7.70;83.23;99422.37;1722558;82;21152;-37
2021/04/20 05:04:39;;;;;;;22.70;17.45;;;;;;;7.80;83.01;99424.97;1720793;82;21655;-38
2021/04/20 05:07:09;;;;;;;26.05;17.60;;;;;;;7.88;82.71;99425.36;1728207;81;21160;-43
2021/04/20 05:09:37;;;;;;;22.50;17.00;;;;;;;7.96;82.34;99421.02;1725932;82;21221;-42
2021/04/20 05:12:06;;;;;;;25.32;16.80;;;;;;;8.05;81.94;99426.61;1709634;81;21214;-37
2021/04/20 05:14:35;;;;;;;22.67;16.62;;;;;;;8.14;81.52;99429.63;1729839;81;21394;-36
2021/04/20 05:17:04;;;;;;;22.60;15.25;;;;;;;8.21;81.26;99422.21;1726506;82;21620;-42
2021/04/20 05:19:33;;;;;;;22.60;17.12;;;;;;;8.31;80.82;99408.72;1724297;81;21701;-42
2021/04/20 05:22:01;;;;;;;19.87;14.93;;;;;;;8.39;80.43;99409.13;1709972;82;21187;-42
2021/04/20 05:24:31;;;;;;;20.45;16.57;;;;;;;8.48;80.25;99409.53;1719508;81;21127;-38
2021/04/20 05:26:59;;;;;;;21.02;15.05;;;;;;;8.54;79.28;99413.41;1720751;82;21188;-42
2021/04/20 05:29:27;;;;;;;19.02;14.23;;;;;;;8.61;79.49;99416.83;1717065;82;21167;-43
2021/04/20 05:31:56;;;;;;;18.52;14.33;;;;;;;8.69;78.68;99417.20;1717222;82;21641;-43
2021/04/20 05:34:31;;;;;;;22.05;14.55;;;;;;;8.74;78.06;99425.86;1713096;82;21169;-35
2021/04/20 05:37:35;;;;;;;21.00;15.00;;;;;;;8.73;77.61;99417.62;1722986;81;21306;-42
2021/04/20 05:40:14;;;;;;;20.70;15.03;;;;;;;8.68;77.62;99419.39;1721166;81;21345;-37
2021/04/20 05:42:56;;;;;;;23.30;15.13;;;;;;;8.66;77.84;99408.55;1688737;82;21191;-36
2021/04/20 05:45:33;;;;;;;23.67;15.53;;;;;;;8.66;77.64;99412.46;1720263;82;21967;-37
2021/04/20 05:48:16;;;;;;;22.70;15.28;;;;;;;8.69;77.79;99416.34;1699246;82;21892;-36
2021/04/20 05:51:27;;;;;;;26.23;16.97;;;;;;;8.73;77.55;99406.33;1719083;81;21392;-42
2021/04/20 05:57:26;;;;;;;16.20;12.13;;;;;;;8.87;77.47;99404.50;1715271;81;21624;-37
2021/04/20 06:00:01;;;;;;;18.00;12.53;;;;;;;8.98;77.25;99401.34;1719194;82;21937;-37
2021/04/20 06:02:34;;;;;;;15.75;12.45;;;;;;;9.07;76.77;99397.81;1721830;81;21219;-37
2021/04/20 06:05:12;;;;;;;19.93;13.57;;;;;;;9.15;76.77;99395.12;1722572;82;21702;-36
2021/04/20 06:07:47;;;;;;;15.93;12.80;;;;;;;9.21;76.64;99397.24;1718907;81;21197;-40
2021/04/20 06:10:16;;;;;;;18.55;12.35;;;;;;;9.29;76.03;99398.06;1717584;82;21494;-41
2021/04/20 06:12:44;;;;;;;18.50;11.28;;;;;;;9.36;75.71;99400.17;1713732;82;21493;-38
2021/04/20 06:15:14;;;;;;;15.25;11.33;;;;;;;9.41;75.17;99403.61;1724267;81;21158;-36
2021/04/20 06:26:08;;;;;;;14.47;11.83;;;;;;;9.62;74.52;99395.12;1712098;81;21316;-41
2021/04/20 06:37:45;;;;;;;13.13;10.35;;;;;;;10.07;72.86;99385.45;1720830;81;21176;-42
2021/04/20 06:45:21;;;;;;;14.18;11.25;;;;;;;10.23;71.65;99388.78;1721811;82;21504;-43
2021/04/20 06:49:05;;;;;;;13.08;10.53;;;;;;;10.30;71.04;99386.50;1712862;81;21174;-42
2021/04/20 06:52:15;;;;;;;12.60;9.83;;;;;;;10.33;70.79;99385.62;1720721;81;21199;-37
2021/04/20 06:55:03;;;;;;;13.55;10.93;;;;;;;10.31;70.63;99378.22;1718555;81;21649;-42
2021/04/20 06:57:47;;;;;;;11.85;10.25;;;;;;;10.30;70.37;99377.80;1722207;81;21687;-42
2021/04/20 07:00:25;;;;;;;12.05;10.45;;;;;;;10.28;70.17;99375.66;1721083;81;21755;-47
2021/04/20 07:03:13;;;;;;;15.00;10.90;;;;;;;10.27;70.17;99377.41;1723571;81;21151;-37
2021/04/20 07:05:47;;;;;;;12.78;9.48;;;;;;;10.30;70.31;99372.12;1704111;82;21187;-42
2021/04/20 07:08:33;;;;;;;16.07;9.80;;;;;;;10.39;70.01;99364.61;1680113;82;21171;-41
2021/04/20 07:11:01;;;;;;;11.55;9.93;;;;;;;10.48;69.91;99367.53;1719118;82;21153;-42
2021/04/20 07:13:56;;;;;;;13.03;9.10;;;;;;;10.57;69.04;99365.66;1699980;82;21580;-37
2021/04/20 07:17:38;;;;;;;11.83;9.00;;;;;;;10.64;68.78;99362.05;1709633;82;21168;-41
2021/04/20 07:21:44;;;;;;;13.53;9.68;;;;;;;10.74;68.00;99352.77;1693085;82;21172;-41
2021/04/20 07:25:43;;;;;;;11.10;8.60;;;;;;;10.82;67.58;99349.58;1726057;81;21631;-41
2021/04/20 07:29:31;;;;;;;9.88;8.78;;;;;;;10.99;66.83;99354.54;1723800;81;21194;-41
2021/04/20 07:32:37;;;;;;;9.68;8.20;;;;;;;11.07;66.31;99353.50;1723280;81;21163;-41
2021/04/20 07:35:30;;;;;;;11.30;8.38;;;;;;;11.12;65.76;99341.20;1720961;82;21340;-44
2021/04/20 07:38:12;;;;;;;13.13;8.55;;;;;;;11.20;66.11;99334.55;1722790;82;21450;-36
2021/04/20 07:41:14;;;;;;;11.05;8.70;;;;;;;11.27;66.44;99331.37;1710806;82;21155;-36
2021/04/20 07:44:10;;;;;;;10.45;8.63;;;;;;;11.34;65.93;99327.74;1719331;82;21131;-36
2021/04/20 07:46:53;;;;;;;11.90;7.42;;;;;;;11.38;64.61;99323.73;1722754;81;21185;-36
2021/04/20 07:49:49;;;;;;;12.03;8.55;;;;;;;11.37;64.64;99325.94;1722323;81;21655;-43
2021/04/20 07:52:50;;;;;;;10.10;7.30;;;;;;;11.39;64.00;99322.84;1695893;81;21196;-36
2021/04/20 07:55:33;;;;;;;9.63;7.75;;;;;;;11.36;62.92;99315.02;1705347;81;21729;-42
2021/04/20 07:58:07;;;;;;;11.85;8.08;;;;;;;11.35;62.92;99320.30;1686654;81;21206;-37
2021/04/20 08:00:48;;;;;;;9.23;7.65;;;;;;;11.34;63.16;99311.58;1724375;81;21143;-43
2021/04/20 08:03:58;;;;;;;9.20;7.87;;;;;;;11.36;62.92;99306.30;1714694;81;21697;-40
2021/04/20 08:06:31;;;;;;;15.10;8.05;;;;;;;11.38;62.28;99303.23;1649431;85;21747;-36
2021/04/20 08:09:21;;;;;;;8.98;7.47;;;;;;;11.42;62.71;99295.30;1651416;84;21635;-37
2021/04/20 08:11:59;;;;;;;15.13;8.30;;;;;;;11.54;61.26;99286.75;1794380;78;23098;-42
2021/04/20 08:15:02;;;;;;;11.43;7.40;;;;;;;11.58;61.52;99282.73;1766652;79;21437;-37
2021/04/20 08:26:01;;;;;;;8.25;6.92;;;;;;;12.09;59.40;99270.78;1744866;80;20156;-43
2021/04/20 08:29:35;;;;;;;7.97;6.03;;;;;;;12.21;57.34;99271.80;1749854;80;21632;-36
2021/04/20 08:37:34;;;;;;;9.05;6.90;;;;;;;12.48;56.23;99257.20;1751343;80;21304;-36
2021/04/20 08:45:01;;;;;;;7.00;5.33;;;;;;;12.81;56.13;99253.30;1749613;80;21733;-43
2021/04/20 08:48:55;;;;;;;7.35;4.50;;;;;;;12.93;53.58;99253.44;1689727;83;21171;-42
2021/04/20 08:52:21;;;;;;;6.10;4.45;;;;;;;13.08;51.40;99249.56;1695419;83;21353;-43
2021/04/20 08:56:17;;;;;;;4.75;3.95;;;;;;;13.21;50.56;99243.95;1694071;83;21634;-38
2021/04/20 09:20:50;;;;;;;5.05;3.45;;;;;;;14.14;44.13;99214.06;1586776;88;20221;-41
2021/04/20 09:24:21;;;;;;;5.60;3.98;;;;;;;14.23;44.93;99198.46;1586471;89;21270;-43
2021/04/20 09:31:39;;;;;;;4.12;3.15;;;;;;;14.54;45.17;99196.56;1586000;88;21257;-44
2021/04/20 09:34:49;;;;;;;;;;;;;;;14.67;43.74;99193.09;1593070;88;22051;-37
2021/04/20 09:37:35;;;;;;;5.87;3.30;;;;;;;14.80;42.79;99186.94;1689127;83;20447;-41
2021/04/20 09:40:04;;;;;;;3.67;3.17;;;;;;;14.84;44.15;99184.16;1692950;83;21543;-45
2021/04/20 09:42:35;;;;;;;3.00;2.60;;;;;;;14.90;43.70;99181.73;1664976;84;21245;-44
2021/04/20 09:45:16;;;;;;;3.83;3.40;;;;;;;15.02;43.29;99181.33;1662518;83;21226;-44
2021/04/20 09:48:20;;;;;;;9.73;6.00;;;;;;;15.08;41.22;99178.93;1695224;83;21211;-43
2021/04/20 09:51:21;;;;;;;5.42;3.52;;;;;;;15.07;43.11;99175.41;1695194;83;21199;-44
2021/04/20 09:54:03;;;;;;;3.40;3.08;;;;;;;15.15;41.96;99179.11;1690386;83;21178;-38
2021/04/20 09:56:36;;;;;;;3.52;3.00;;;;;;;15.04;42.54;99172.05;1690040;83;21183;-37
2021/04/20 09:59:14;;;;;;;3.95;3.47;;;;;;;15.10;42.68;99166.09;1673203;83;21198;-39
2021/04/20 10:06:39;;;;;;;3.67;3.15;;;;;;;15.10;41.96;99166.09;1696510;83;21314;-39
2021/04/20 10:10:55;;;;;;;4.15;3.75;;;;;;;15.01;42.18;99158.97;1692350;83;21171;-38
2021/04/20 10:19:07;;;;;;;3.37;2.77;;;;;;;15.13;43.02;99150.62;1707752;82;21155;-45
2021/04/20 10:22:11;;;;;;;3.65;3.27;;;;;;;15.31;41.83;99149.11;1712408;82;21936;-42
2021/04/20 10:24:45;;;;;;;4.75;3.65;;;;;;;15.40;41.96;99136.89;1711251;82;21559;-42
2021/04/20 10:27:15;;;;;;;5.83;3.75;;;;;;;15.46;42.13;99138.43;1690169;82;21178;-37
2021/04/20 10:30:03;;;;;;;4.97;4.08;;;;;;;15.51;41.84;99145.70;1713279;82;21612;-41
2021/04/20 10:32:36;;;;;;;3.77;3.37;;;;;;;15.45;41.76;99138.89;1719769;82;21205;-36
2021/04/20 10:35:10;;;;;;;4.00;3.60;;;;;;;15.41;41.81;99132.02;1706147;82;21205;-42
2021/04/20 10:37:43;;;;;;;4.28;3.87;;;;;;;15.50;41.64;99134.77;1680132;83;21211;-44
2021/04/20 10:40:16;;;;;;;4.35;3.37;;;;;;;15.57;41.71;99140.20;1668658;84;21322;-42
2021/04/20 10:42:48;;;;;;;5.05;3.90;;;;;;;15.53;40.25;99135.48;1663339;84;21188;-37
2021/04/20 10:45:18;;;;;;;;;;;;;;;15.29;41.05;99127.20;1673249;85;21200;-42
2021/04/20 10:47:51;;;;;;;4.47;3.83;;;;;;;15.12;41.74;99133.95;1641749;85;20399;-42
2021/04/20 10:50:23;;;;;;;6.12;3.65;;;;;;;15.02;41.81;99124.70;1672873;85;21190;-44
2021/04/20 10:52:57;;;;;;;3.40;3.10;;;;;;;14.92;42.26;99125.94;1667915;85;21178;-41
2021/04/20 10:55:28;;;;;;;3.65;3.27;;;;;;;14.87;42.47;99133.14;1673440;85;21203;-43
2021/04/20 10:57:56;;;;;;;4.62;2.98;;;;;;;14.87;41.93;99125.24;1645583;85;21456;-37
2021/04/20 11:00:27;;;;;;;6.33;3.12;;;;;;;14.86;41.55;99128.80;1657448;85;21183;-43
2021/04/20 11:02:59;;;;;;;4.42;3.47;;;;;;;14.83;41.79;99117.89;1677046;83;21181;-38
2021/04/20 11:05:29;;;;;;;4.22;3.83;;;;;;;14.85;41.37;99120.50;1670684;84;21638;-37
2021/04/20 11:07:58;;;;;;;4.92;3.58;;;;;;;14.84;41.97;99122.70;1667965;84;21749;-37
2021/04/20 11:10:37;;;;;;;5.15;3.22;;;;;;;14.82;41.73;99121.45;1664147;85;21471;-37
2021/04/20 11:13:06;;;;;;;5.80;3.37;;;;;;;14.87;41.96;99114.70;1674083;84;21754;-42
2021/04/20 11:15:35;;;;;;;3.87;3.37;;;;;;;14.92;40.87;99114.55;1670953;83;21671;-41
2021/04/20 11:18:08;;;;;;;3.83;3.45;;;;;;;14.89;41.83;99112.87;1667594;84;21653;-36
2021/04/20 11:20:47;;;;;;;3.52;2.92;;;;;;;14.90;41.73;99110.20;1707030;82;21213;-36
2021/04/20 11:23:24;;;;;;;6.25;3.37;;;;;;;14.94;41.65;99110.08;1717435;82;21167;-42
2021/04/20 11:26:06;;;;;;;5.15;3.10;;;;;;;14.96;42.27;99110.86;1699183;82;21177;-37
2021/04/20 11:28:52;;;;;;;6.17;3.72;;;;;;;15.01;41.64;99107.15;1706516;82;21155;-43
2021/04/20 11:31:33;;;;;;;3.72;3.30;;;;;;;14.98;40.97;99106.42;1704609;82;21212;-37
2021/04/20 11:34:25;;;;;;;7.22;3.10;;;;;;;14.87;41.09;99099.77;1711135;82;21224;-38
2021/04/20 11:39:46;;;;;;;5.33;3.20;;;;;;;14.89;41.25;99092.66;1794773;78;23340;-37
2021/04/20 11:42:23;;;;;;;4.17;3.27;;;;;;;14.89;41.40;99101.02;1765704;80;21517;-37
2021/04/20 11:45:03;;;;;;;3.52;3.22;;;;;;;14.86;40.58;99101.14;1765759;80;21649;-37
2021/04/20 11:47:31;;;;;;;;;;;;;;;14.74;40.61;99094.55;1771513;80;21136;-43
2021/04/20 11:50:08;;;;;;;3.02;2.77;;;;;;;14.59;40.69;99093.77;1766216;80;20174;-41
2021/04/20 11:52:35;;;;;;;5.28;3.30;;;;;;;14.51;41.47;99087.92;1769766;79;21600;-37
2021/04/20 11:55:08;;;;;;;3.72;3.30;;;;;;;14.55;41.58;99080.30;1766877;80;21219;-37
2021/04/20 11:57:37;;;;;;;2.95;2.65;;;;;;;14.63;40.68;99073.87;1768016;80;21155;-37
2021/04/20 12:00:10;;;;;;;6.85;3.00;;;;;;;14.70;41.52;99073.19;1764896;79;21119;-37
2021/04/20 12:02:38;;;;;;;3.50;3.10;;;;;;;14.74;40.07;99068.22;1776897;80;21175;-42
2021/04/20 12:05:12;;;;;;;2.92;2.55;;;;;;;14.73;40.48;99076.19;1764945;80;21198;-36
2021/04/20 12:07:39;;;;;;;4.80;3.27;;;;;;;14.72;40.40;99069.17;1772436;80;21178;-37
2021/04/20 12:10:10;;;;;;;4.37;3.20;;;;;;;14.73;40.14;99072.23;1777663;80;21183;-42
2021/04/20 12:12:38;;;;;;;3.60;2.98;;;;;;;14.76;40.14;99066.84;1750845;80;21200;-37
2021/04/20 12:15:07;;;;;;;3.58;3.10;;;;;;;14.77;40.50;99066.78;1769961;80;21497;-37
2021/04/20 12:17:40;;;;;;;2.95;2.62;;;;;;;14.74;39.40;99056.84;1774383;79;21162;-38
2021/04/20 12:20:13;;;;;;;3.52;3.08;;;;;;;14.65;40.03;99061.96;1741841;81;21154;-37
2021/04/20 12:22:43;;;;;;;3.20;2.90;;;;;;;14.62;39.51;99062.95;1683880;83;21733;-42
2021/04/20 12:25:15;;;;;;;3.92;2.83;;;;;;;14.59;40.19;99058.23;1704472;81;21199;-37
2021/04/20 12:27:43;;;;;;;4.45;3.30;;;;;;;14.58;40.14;99065.73;1714778;81;21198;-37
2021/04/20 12:30:12;;;;;;;5.97;2.98;;;;;;;14.56;40.69;99055.73;1737784;81;21150;-36
2021/04/20 12:32:42;;;;;;;3.17;2.90;;;;;;;14.57;39.91;99054.35;1720450;82;21570;-37
2021/04/20 12:35:10;;;;;;;3.17;2.87;;;;;;;14.54;40.09;99053.59;1711050;83;21628;-37
2021/04/20 12:37:38;;;;;;;2.90;2.65;;;;;;;14.48;40.51;99055.13;1715488;83;21185;-42
2021/04/20 12:40:12;;;;;;;2.50;2.30;;;;;;;14.47;40.52;99052.09;1716900;81;21628;-41
2021/04/20 12:42:45;;;;;;;3.17;2.87;;;;;;;14.45;40.66;99049.95;1739298;81;21179;-37
2021/04/20 12:45:16;;;;;;;4.87;2.70;;;;;;;14.48;40.50;99051.17;1738805;82;21163;-38
2021/04/20 12:47:46;;;;;;;5.47;2.75;;;;;;;14.48;40.16;99043.28;1720545;82;21262;-42
2021/04/20 12:50:17;;;;;;;6.28;3.15;;;;;;;14.49;41.02;99044.53;1748653;80;21152;-43
2021/04/20 12:52:45;;;;;;;2.83;2.52;;;;;;;14.54;40.88;99041.74;1713859;81;21270;-38
2021/04/20 12:55:17;;;;;;;3.67;3.35;;;;;;;14.61;41.33;99041.92;1749658;80;21199;-39
2021/04/20 12:57:45;;;;;;;2.47;2.27;;;;;;;14.65;40.45;99040.91;1744708;82;21165;-37
2021/04/20 13:00:19;;;;;;;2.70;2.35;;;;;;;14.70;41.06;99038.11;1742547;81;21178;-42
2021/04/20 13:02:49;;;;;;;4.80;3.20;;;;;;;14.72;40.21;99036.27;1747097;80;21157;-36
2021/04/20 13:05:22;;;;;;;3.85;3.27;;;;;;;14.74;40.78;99034.45;1743992;81;21180;-37
